Weather reports worldwide

Advertisment
Pristina, Kosovo (13481): temperature & dewpoint: 07.12.2017 14:00:00 - 13.12.2017 14:00:00 (CET)Pristina, Kosovo (13481): wind speed: 07.12.2017 14:00:00 - 13.12.2017 14:00:00 (CET)Pristina, Kosovo (13481): wind direction: 07.12.2017 14:00:00 - 13.12.2017 14:00:00 (CET)Pristina, Kosovo (13481): visibility: 07.12.2017 14:00:00 - 13.12.2017 14:00:00 (CET)
Date & Time tt [°C] td [°C] ff [km/h] ff [kn] dd vv [km]
13.12.2017 14:00:00 15,0 3,0 22 12 S 10
13.12.2017 13:00:00 15,0 3,0 26 14 SSW 10
13.12.2017 12:00:00 15,0 3,0 29 16 SW 10
13.12.2017 11:00:00 13,0 4,0 16 9 SSW 10
13.12.2017 10:00:00 8,0 3,0 15 8 SSE 10
13.12.2017 09:00:00 8,0 2,0 8 4 ESE 10
13.12.2017 08:00:00 6,0 2,0 18 10 SSE 10
13.12.2017 07:00:00 5,0 1,0 4 2 - 10
13.12.2017 06:00:00 6,0 2,0 5 3 - 10
13.12.2017 05:00:00 9,0 1,0 8 4 SSE 10
13.12.2017 04:00:00 8,0 1,0 11 6 E 10
13.12.2017 03:00:00 10,0 2,0 11 6 S 10
13.12.2017 02:00:00 8,0 2,0 15 8 S 10
13.12.2017 01:00:00 4,0 0,0 9 5 S 10
13.12.2017 00:00:00 4,0 1,0 5 3 - 10
12.12.2017 23:00:00 4,0 0,0 9 5 ENE 10
12.12.2017 22:00:00 6,0 1,0 9 5 SE 10
12.12.2017 21:00:00 7,0 2,0 5 3 - 10
12.12.2017 20:00:00 9,0 3,0 5 3 - 10
12.12.2017 19:00:00 11,0 3,0 11 6 SSW 10
12.12.2017 18:00:00 11,0 3,0 9 5 SW 10
12.12.2017 17:00:00 12,0 4,0 4 2 - 10
12.12.2017 16:00:00 13,0 4,0 18 10 SW 10
12.12.2017 15:00:00 14,0 4,0 22 12 SW 10
12.12.2017 14:00:00 14,0 3,0 24 13 WSW 10
12.12.2017 13:00:00 14,0 4,0 26 14 SSW 10
12.12.2017 12:00:00 14,0 4,0 34 18 SW 10
12.12.2017 11:00:00 15,0 4,0 22 12 SW 10
12.12.2017 10:00:00 11,0 4,0 5 3 - 10
12.12.2017 09:00:00 7,0 2,0 15 8 E 10
12.12.2017 08:00:00 6,0 1,0 11 6 SE 10
12.12.2017 07:00:00 5,0 0,0 9 5 SSE 10
12.12.2017 06:00:00 4,0 -1,0 13 7 S 10
12.12.2017 05:00:00 5,0 0,0 11 6 SSE 10
12.12.2017 04:00:00 4,0 0,0 15 8 SSE 10
12.12.2017 03:00:00 4,0 0,0 9 5 SSE 10
12.12.2017 02:00:00 5,0 0,0 15 8 S 10
12.12.2017 01:00:00 4,0 -1,0 21 11 S 10
12.12.2017 00:00:00 5,0 -1,0 22 12 S 10
11.12.2017 23:00:00 4,0 -2,0 13 7 S 10
11.12.2017 22:00:00 5,0 -1,0 21 11 S 10
11.12.2017 21:00:00 4,0 -2,0 18 10 SSE 10
11.12.2017 20:00:00 4,0 -1,0 11 6 S 10
11.12.2017 19:00:00 4,0 -2,0 29 16 SSE 10
11.12.2017 18:00:00 4,0 -2,0 22 12 SSE 10
11.12.2017 17:00:00 3,0 -2,0 13 7 SSE 10
11.12.2017 16:00:00 4,0 -1,0 22 12 S 10
11.12.2017 15:00:00 6,0 -1,0 24 13 SE 10
11.12.2017 14:00:00 5,0 -1,0 18 10 SE 10
11.12.2017 13:00:00 4,0 -2,0 16 9 SSE 10
11.12.2017 12:00:00 3,0 -3,0 16 9 SE 10
11.12.2017 11:00:00 3,0 -4,0 11 6 S 10
11.12.2017 10:00:00 2,0 -4,0 16 9 SSW 10
11.12.2017 09:00:00 1,0 -5,0 11 6 S 10
11.12.2017 08:00:00 1,0 -5,0 11 6 SSW 10
11.12.2017 07:00:00 1,0 -6,0 16 9 S 10
11.12.2017 06:00:00 0,0 -6,0 18 10 S 10
11.12.2017 05:00:00 -1,0 -6,0 18 10 S 10
11.12.2017 04:00:00 -1,0 -6,0 4 2 - 10
11.12.2017 03:00:00 -1,0 -6,0 11 6 SSE 10
11.12.2017 02:00:00 -1,0 -5,0 15 8 SE 10
11.12.2017 01:00:00 2,0 -5,0 9 5 S 10
11.12.2017 00:00:00 0,0 -6,0 5 3 - 10
10.12.2017 23:00:00 -1,0 -6,0 9 5 SE 10
10.12.2017 22:00:00 -2,0 -6,0 11 6 S 10
10.12.2017 21:00:00 -2,0 -6,0 11 6 S 10
10.12.2017 20:00:00 -2,0 -6,0 16 9 S 10
10.12.2017 19:00:00 -2,0 -6,0 9 5 S 10
10.12.2017 18:00:00 -1,0 -6,0 16 9 S 10
10.12.2017 17:00:00 -3,0 -7,0 9 5 S 10
10.12.2017 16:00:00 -1,0 -6,0 13 7 S 10
10.12.2017 15:00:00 0,0 -6,0 8 4 SSE 10
10.12.2017 14:00:00 0,0 -6,0 11 6 SSE 10
10.12.2017 13:00:00 -1,0 -6,0 9 5 S 10
10.12.2017 12:00:00 -1,0 -5,0 5 3 - 10
10.12.2017 11:00:00 -1,0 -5,0 9 5 SSW 10
10.12.2017 10:00:00 -2,0 -5,0 5 3 - 10
10.12.2017 09:00:00 -4,0 -6,0 4 2 - 10
10.12.2017 08:00:00 -4,0 -6,0 2 1 - 10
10.12.2017 07:00:00 -4,0 -6,0 4 2 - 10
10.12.2017 06:00:00 -4,0 -6,0 4 2 - 10
10.12.2017 05:00:00 -2,0 -4,0 9 5 NNW 10
10.12.2017 04:00:00 -2,0 -4,0 5 3 - 10
10.12.2017 03:00:00 -2,0 -3,0 8 4 NW 0,5
10.12.2017 02:00:00 -2,0 -3,0 29 16 NNW 3,0
10.12.2017 01:00:00 -1,0 -3,0 13 7 NNW 5
10.12.2017 00:00:00 -1,0 -3,0 21 11 NNW 1,6
09.12.2017 23:00:00 -1,0 -2,0 29 16 NNW 4,0
09.12.2017 22:00:00 0,0 -2,0 22 12 N 3,0
09.12.2017 21:00:00 1,0 -2,0 31 17 NNW 4,0
09.12.2017 20:00:00 7,0 2,0 18 10 S 10
09.12.2017 19:00:00 7,0 3,0 16 9 SSE 10
09.12.2017 18:00:00 6,0 3,0 15 8 SSE 10
09.12.2017 17:00:00 7,0 4,0 8 4 WSW 10
09.12.2017 16:00:00 7,0 4,0 13 7 W 10
09.12.2017 15:00:00 9,0 3,0 13 7 SW 10
09.12.2017 14:00:00 12,0 -1,0 26 14 SSW 10
09.12.2017 13:00:00 13,0 1,0 31 17 SSW 10
09.12.2017 12:00:00 11,0 1,0 8 4 S 10
09.12.2017 11:00:00 8,0 0,0 13 7 S 10
09.12.2017 10:00:00 9,0 0,0 16 9 SSE 10
09.12.2017 09:00:00 8,0 0,0 21 11 S 10
09.12.2017 08:00:00 8,0 0,0 26 14 SSE 10
09.12.2017 07:00:00 6,0 -2,0 24 13 SSW 10
09.12.2017 06:00:00 6,0 -1,0 21 11 SSW 10
09.12.2017 05:00:00 8,0 0,0 21 11 S 10
09.12.2017 04:00:00 5,0 -2,0 22 12 SSE 10
09.12.2017 03:00:00 5,0 -2,0 9 5 SSE 10
09.12.2017 02:00:00 2,0 -3,0 16 9 S 10
09.12.2017 01:00:00 2,0 -3,0 9 5 SE 10
09.12.2017 00:00:00 3,0 -3,0 13 7 S 10
08.12.2017 23:00:00 6,0 -2,0 13 7 S 10
08.12.2017 22:00:00 6,0 -2,0 13 7 S 10
08.12.2017 21:00:00 7,0 -2,0 28 15 SSW 10
08.12.2017 20:00:00 8,0 -1,0 11 6 S 10
08.12.2017 19:00:00 7,0 -1,0 4 2 - 10
08.12.2017 18:00:00 7,0 -2,0 9 5 ESE 10
08.12.2017 17:00:00 8,0 -2,0 2 1 - 10
08.12.2017 16:00:00 8,0 -1,0 4 2 - 10
08.12.2017 15:00:00 10,0 -1,0 8 4 SSW 10
08.12.2017 14:00:00 11,0 -1,0 18 10 S 10
08.12.2017 13:00:00 6,0 1,0 13 7 E 6
08.12.2017 12:00:00 3,0 1,0 5 3 - 4,0
08.12.2017 11:00:00 0,0 -2,0 4 2 - 1,5
08.12.2017 10:00:00 -3,0 -5,0 0 0 N 0,1
08.12.2017 09:00:00 -4,0 -6,0 4 2 - -
08.12.2017 08:00:00 -5,0 -7,0 0 0 N -
08.12.2017 07:00:00 -5,0 -7,0 0 0 N -
08.12.2017 06:00:00 -5,0 -7,0 0 0 N -
08.12.2017 05:00:00 -5,0 -7,0 2 1 - -
08.12.2017 04:00:00 -4,0 -6,0 0 0 N 0,1
08.12.2017 03:00:00 -4,0 -6,0 0 0 N 5
08.12.2017 02:00:00 -3,0 -5,0 2 1 - 5
08.12.2017 01:00:00 -3,0 -5,0 0 0 N 4,0
08.12.2017 00:00:00 -3,0 -5,0 0 0 N 3,0
07.12.2017 23:00:00 -2,0 -4,0 2 1 - 7
07.12.2017 22:00:00 -2,0 -4,0 0 0 N 7
07.12.2017 21:00:00 -1,0 -4,0 2 1 - 10
07.12.2017 20:00:00 0,0 -3,0 2 1 - 10
07.12.2017 19:00:00 0,0 -3,0 8 4 S 10
07.12.2017 18:00:00 2,0 -2,0 2 1 - 10
07.12.2017 17:00:00 3,0 -3,0 5 3 - 10
07.12.2017 16:00:00 7,0 -2,0 8 4 WSW 10
07.12.2017 15:00:00 9,0 -1,0 2 1 - 10
07.12.2017 14:00:00 9,0 0,0 8 4 SE 10

tt = temperature
td = dewpoint
ff = wind speed
dd = wind direction
vv = visibility

Next stations